Time;durP1;ratioP1;P1;durP2;ratioP2;P2;SDS_P1;SDS_P2;PMS_P1;PMS_P2;Temp;Humidity;BMP_temperature;BMP_pressure;BME280_temperature;BME280_humidity;BME280_pressure;Samples;Min_cycle;Max_cycle;Signal;HPM_P1;HPM_P2
2022/01/14 00:00:13;;;;;;;32.40;17.88;;;;;;;;;;4975870;28;20391;-77
2022/01/14 00:02:40;;;;;;;26.73;16.15;;;;;;;;;;4975815;28;20201;-76
2022/01/14 00:05:08;;;;;;;31.95;17.42;;;;;;;;;;4982741;28;20200;-76
2022/01/14 00:07:35;;;;;;;32.10;17.95;;;;;;;;;;4990427;28;20223;-82
2022/01/14 00:10:02;;;;;;;31.05;17.67;;;;;;;;;;4979908;28;20594;-77
2022/01/14 00:12:36;;;;;;;29.50;16.23;;;;;;;;;;4973438;28;20221;-79
2022/01/14 00:15:23;;;;;;;27.25;15.85;;;;;;;;;;4985561;28;20204;-77
2022/01/14 00:17:51;;;;;;;30.73;16.05;;;;;;;;;;4993749;28;20221;-81
2022/01/14 00:20:18;;;;;;;28.73;17.02;;;;;;;;;;4992447;28;20227;-79
2022/01/14 00:22:45;;;;;;;28.95;17.10;;;;;;;;;;4994541;28;20197;-76
2022/01/14 00:33:17;;;;;;;29.58;17.55;;;;;;;;;;4972301;28;20221;-79
2022/01/14 00:35:44;;;;;;;39.42;18.02;;;;;;;;;;4972985;28;20212;-78
2022/01/14 00:38:12;;;;;;;30.30;16.85;;;;;;;;;;4972271;28;20232;-78
2022/01/14 00:40:39;;;;;;;34.13;19.05;;;;;;;;;;4972018;28;20217;-78
2022/01/14 00:43:06;;;;;;;29.45;19.23;;;;;;;;;;4985506;28;20211;-76
2022/01/14 00:45:34;;;;;;;36.83;19.40;;;;;;;;;;4988546;28;20197;-76
2022/01/14 00:48:02;;;;;;;34.60;18.25;;;;;;;;;;4989424;28;20298;-78
2022/01/14 00:50:30;;;;;;;31.85;17.90;;;;;;;;;;4990620;28;20205;-78
2022/01/14 00:52:57;;;;;;;30.55;17.75;;;;;;;;;;4991016;28;20588;-76
2022/01/14 00:55:28;;;;;;;33.22;18.50;;;;;;;;;;4985720;28;20193;-79
2022/01/14 01:00:37;;;;;;;35.90;18.40;;;;;;;;;;4992948;28;20661;-76
2022/01/14 01:03:05;;;;;;;28.92;17.58;;;;;;;;;;5008647;28;20231;-78
2022/01/14 01:05:32;;;;;;;31.35;18.55;;;;;;;;;;5009503;28;20192;-81
2022/01/14 01:08:04;;;;;;;25.63;16.65;;;;;;;;;;5007686;28;20211;-77
2022/01/14 01:10:32;;;;;;;29.80;16.83;;;;;;;;;;4998480;28;20284;-76
2022/01/14 01:13:05;;;;;;;38.03;18.27;;;;;;;;;;5011673;28;20230;-80
2022/01/14 01:15:32;;;;;;;27.25;17.63;;;;;;;;;;4996740;28;20203;-77
2022/01/14 01:17:59;;;;;;;30.25;17.10;;;;;;;;;;5008130;28;20226;-77
2022/01/14 01:20:28;;;;;;;33.17;17.95;;;;;;;;;;5008552;28;20203;-78
2022/01/14 01:22:55;;;;;;;32.00;16.65;;;;;;;;;;5007617;28;20488;-78
2022/01/14 01:25:25;;;;;;;43.70;17.48;;;;;;;;;;5011447;28;20231;-78
2022/01/14 01:27:54;;;;;;;29.08;16.23;;;;;;;;;;5024869;28;20632;-75
2022/01/14 01:30:49;;;;;;;29.85;16.45;;;;;;;;;;4996794;28;20236;-81
2022/01/14 01:33:15;;;;;;;29.98;17.08;;;;;;;;;;4969491;28;20223;-76
2022/01/14 01:35:44;;;;;;;31.02;16.80;;;;;;;;;;4993833;28;20728;-75
2022/01/14 01:38:16;;;;;;;28.20;16.20;;;;;;;;;;4993528;28;20234;-76
2022/01/14 01:40:44;;;;;;;29.35;16.08;;;;;;;;;;4997676;28;20567;-78
2022/01/14 01:43:12;;;;;;;24.33;13.90;;;;;;;;;;5008469;28;20669;-79
2022/01/14 01:45:39;;;;;;;28.42;14.93;;;;;;;;;;5008956;28;20204;-78
2022/01/14 01:48:06;;;;;;;27.35;16.95;;;;;;;;;;5010037;28;20247;-78
2022/01/14 01:50:36;;;;;;;24.50;15.80;;;;;;;;;;4997986;28;20201;-80
2022/01/14 01:53:05;;;;;;;30.00;15.40;;;;;;;;;;4991461;28;20220;-78
2022/01/14 01:55:32;;;;;;;29.40;16.52;;;;;;;;;;4974719;28;20197;-78
2022/01/14 01:57:59;;;;;;;28.50;15.40;;;;;;;;;;4975536;28;20243;-78
2022/01/14 02:00:27;;;;;;;25.92;15.88;;;;;;;;;;4991878;28;20204;-79
2022/01/14 02:02:56;;;;;;;29.45;16.45;;;;;;;;;;4994355;28;20565;-78
2022/01/14 02:05:24;;;;;;;34.28;16.08;;;;;;;;;;5006855;28;20189;-77
2022/01/14 02:07:51;;;;;;;27.83;16.20;;;;;;;;;;5008579;28;20216;-79
2022/01/14 02:10:21;;;;;;;29.88;17.45;;;;;;;;;;4993447;28;20216;-76
2022/01/14 02:12:51;;;;;;;27.58;15.85;;;;;;;;;;5009458;28;20204;-78
2022/01/14 02:18:26;;;;;;;29.38;16.25;;;;;;;;;;4963236;28;20212;-76
2022/01/14 02:23:39;;;;;;;27.10;16.00;;;;;;;;;;5006114;28;20424;-76
2022/01/14 02:26:07;;;;;;;25.13;15.13;;;;;;;;;;4993205;28;20585;-77
2022/01/14 02:28:34;;;;;;;25.35;15.63;;;;;;;;;;5001688;28;20189;-79
2022/01/14 02:31:01;;;;;;;25.92;15.60;;;;;;;;;;4973849;28;20201;-79
2022/01/14 02:33:28;;;;;;;32.05;17.27;;;;;;;;;;4990925;28;20223;-77
2022/01/14 02:35:57;;;;;;;26.60;16.95;;;;;;;;;;4974839;28;20212;-80
2022/01/14 02:38:24;;;;;;;27.13;15.88;;;;;;;;;;4993645;28;20558;-77
2022/01/14 02:40:51;;;;;;;25.58;15.07;;;;;;;;;;4992899;28;20300;-78
2022/01/14 02:43:19;;;;;;;26.45;16.08;;;;;;;;;;5002239;28;20338;-77
2022/01/14 02:45:49;;;;;;;24.63;14.57;;;;;;;;;;5008320;28;20203;-77
2022/01/14 02:48:17;;;;;;;27.73;14.73;;;;;;;;;;5006771;28;20212;-79
2022/01/14 02:50:54;;;;;;;25.02;14.82;;;;;;;;;;5010454;28;20572;-78
2022/01/14 02:53:28;;;;;;;26.05;14.85;;;;;;;;;;5009756;28;20227;-76
2022/01/14 02:55:56;;;;;;;26.45;15.05;;;;;;;;;;5010554;28;20634;-77
2022/01/14 02:58:23;;;;;;;30.77;15.85;;;;;;;;;;5007548;28;20251;-77
2022/01/14 03:00:52;;;;;;;23.02;13.50;;;;;;;;;;5012029;28;20207;-77
2022/01/14 03:03:22;;;;;;;28.95;15.95;;;;;;;;;;5012405;28;20281;-77
2022/01/14 03:05:50;;;;;;;24.83;15.18;;;;;;;;;;4997616;28;20195;-81
2022/01/14 03:08:17;;;;;;;27.45;15.75;;;;;;;;;;5001356;28;20647;-78
2022/01/14 03:10:47;;;;;;;27.92;14.77;;;;;;;;;;4994741;28;20209;-76
2022/01/14 03:13:14;;;;;;;25.88;14.40;;;;;;;;;;4995978;28;20237;-77
2022/01/14 03:15:41;;;;;;;25.55;15.65;;;;;;;;;;5005157;28;20201;-78
2022/01/14 03:18:10;;;;;;;22.17;14.63;;;;;;;;;;4995828;28;20251;-76
2022/01/14 03:20:46;;;;;;;25.88;14.73;;;;;;;;;;4998820;28;20192;-78
2022/01/14 03:23:14;;;;;;;25.48;13.98;;;;;;;;;;5011195;28;20207;-76
2022/01/14 03:25:49;;;;;;;25.40;13.82;;;;;;;;;;5011033;28;20207;-78
2022/01/14 03:28:19;;;;;;;23.70;14.60;;;;;;;;;;5013666;28;20227;-77
2022/01/14 03:30:47;;;;;;;25.48;15.00;;;;;;;;;;5008622;28;20210;-76
2022/01/14 03:33:15;;;;;;;28.63;14.85;;;;;;;;;;5000755;28;20204;-79
2022/01/14 03:35:42;;;;;;;24.20;15.10;;;;;;;;;;5013692;28;20200;-77
2022/01/14 03:38:09;;;;;;;24.55;14.55;;;;;;;;;;5015254;28;20243;-77
2022/01/14 03:40:36;;;;;;;27.08;14.25;;;;;;;;;;5013686;28;20200;-77
2022/01/14 03:43:03;;;;;;;23.90;14.13;;;;;;;;;;5013263;28;20242;-78
2022/01/14 03:45:32;;;;;;;29.17;15.07;;;;;;;;;;5010986;28;20558;-76
2022/01/14 03:47:59;;;;;;;23.95;14.45;;;;;;;;;;5009878;28;20220;-79
2022/01/14 03:50:27;;;;;;;26.88;15.45;;;;;;;;;;5013534;28;20207;-80
2022/01/14 03:52:55;;;;;;;27.45;14.77;;;;;;;;;;5013234;28;20687;-80
2022/01/14 03:55:22;;;;;;;24.13;14.02;;;;;;;;;;5006612;28;20231;-78
2022/01/14 03:57:49;;;;;;;23.35;13.65;;;;;;;;;;4993814;28;20232;-78
2022/01/14 04:00:17;;;;;;;22.60;13.05;;;;;;;;;;5014994;28;20204;-78
2022/01/14 04:02:46;;;;;;;21.10;13.43;;;;;;;;;;5015210;28;20203;-78
2022/01/14 04:05:13;;;;;;;22.48;14.00;;;;;;;;;;4991570;28;20204;-80
2022/01/14 04:07:41;;;;;;;23.83;13.52;;;;;;;;;;5009855;28;20228;-77
2022/01/14 04:10:11;;;;;;;23.50;14.48;;;;;;;;;;5007388;28;20204;-77
2022/01/14 04:12:47;;;;;;;19.40;12.68;;;;;;;;;;5009616;28;20223;-78
2022/01/14 04:17:57;;;;;;;20.60;13.32;;;;;;;;;;4990566;28;20307;-80
2022/01/14 04:20:24;;;;;;;22.25;12.38;;;;;;;;;;4996749;28;20201;-78
2022/01/14 04:22:51;;;;;;;24.63;13.35;;;;;;;;;;5008907;28;20591;-77
2022/01/14 04:25:19;;;;;;;25.75;14.77;;;;;;;;;;5010480;28;20204;-78
2022/01/14 04:27:46;;;;;;;23.90;13.13;;;;;;;;;;5012203;28;20224;-77
2022/01/14 04:30:14;;;;;;;23.60;13.30;;;;;;;;;;5011970;28;20200;-77
2022/01/14 04:32:41;;;;;;;22.55;12.10;;;;;;;;;;4993790;28;20204;-76
2022/01/14 04:35:10;;;;;;;26.58;13.98;;;;;;;;;;4992328;28;20240;-78
2022/01/14 04:37:37;;;;;;;26.42;14.15;;;;;;;;;;5004501;28;20568;-76
2022/01/14 04:40:05;;;;;;;25.13;11.35;;;;;;;;;;5009751;28;20680;-77
2022/01/14 04:42:33;;;;;;;23.92;12.48;;;;;;;;;;5013146;28;20208;-76
2022/01/14 04:45:00;;;;;;;22.15;14.25;;;;;;;;;;5012236;28;20234;-78
2022/01/14 04:47:33;;;;;;;26.15;14.45;;;;;;;;;;5006000;28;20212;-78
2022/01/14 04:50:01;;;;;;;29.30;14.60;;;;;;;;;;4994933;28;20833;-77
2022/01/14 04:52:30;;;;;;;25.55;14.98;;;;;;;;;;4995660;28;20208;-78
2022/01/14 04:54:58;;;;;;;18.80;12.82;;;;;;;;;;5011025;28;20220;-76
2022/01/14 04:57:25;;;;;;;28.13;15.27;;;;;;;;;;5006127;28;20243;-77
2022/01/14 04:59:52;;;;;;;29.05;14.95;;;;;;;;;;5011057;28;20215;-77
2022/01/14 05:02:19;;;;;;;27.05;15.13;;;;;;;;;;5011651;28;20196;-76
2022/01/14 05:04:47;;;;;;;25.95;14.60;;;;;;;;;;5010092;28;20673;-78
2022/01/14 05:07:23;;;;;;;29.73;14.63;;;;;;;;;;5010798;28;20651;-76
2022/01/14 05:10:06;;;;;;;31.33;14.10;;;;;;;;;;5012037;28;20215;-77
2022/01/14 05:12:34;;;;;;;27.00;15.80;;;;;;;;;;5009597;28;20196;-77
2022/01/14 05:15:02;;;;;;;28.77;16.27;;;;;;;;;;5007458;28;20685;-79
2022/01/14 05:17:29;;;;;;;27.10;15.73;;;;;;;;;;5026713;28;20212;-77
2022/01/14 05:19:58;;;;;;;25.15;16.45;;;;;;;;;;4996965;28;20400;-77
2022/01/14 05:22:25;;;;;;;27.85;15.13;;;;;;;;;;4990880;28;20204;-77
2022/01/14 05:24:54;;;;;;;30.05;15.50;;;;;;;;;;4974271;28;20565;-79
2022/01/14 05:27:21;;;;;;;25.98;13.93;;;;;;;;;;4994719;28;20571;-77
2022/01/14 05:29:49;;;;;;;22.08;13.10;;;;;;;;;;5014071;28;20203;-76
2022/01/14 05:32:16;;;;;;;24.20;14.15;;;;;;;;;;5009096;28;20208;-76
2022/01/14 05:34:44;;;;;;;24.92;14.43;;;;;;;;;;5010012;28;20223;-79
2022/01/14 05:37:12;;;;;;;21.40;12.95;;;;;;;;;;5011324;28;20224;-80
2022/01/14 05:39:39;;;;;;;20.40;12.93;;;;;;;;;;5015391;28;20203;-78
2022/01/14 05:42:08;;;;;;;22.33;13.27;;;;;;;;;;5011715;28;20196;-77
2022/01/14 05:44:36;;;;;;;23.75;14.43;;;;;;;;;;5012223;28;20207;-77
2022/01/14 05:47:03;;;;;;;24.08;12.38;;;;;;;;;;4995051;28;20216;-76
2022/01/14 05:49:30;;;;;;;23.77;13.20;;;;;;;;;;5011911;28;20207;-76
2022/01/14 05:51:58;;;;;;;21.20;12.55;;;;;;;;;;5009035;28;20211;-79
2022/01/14 05:54:25;;;;;;;21.05;12.60;;;;;;;;;;5009693;28;20557;-78
2022/01/14 05:56:52;;;;;;;20.90;12.73;;;;;;;;;;4995768;28;20223;-76
2022/01/14 05:59:21;;;;;;;23.88;14.20;;;;;;;;;;4991362;28;20200;-78
2022/01/14 06:01:48;;;;;;;27.65;13.00;;;;;;;;;;4990912;28;20209;-78
2022/01/14 06:04:15;;;;;;;22.92;12.30;;;;;;;;;;4972411;28;20200;-78
2022/01/14 06:06:43;;;;;;;21.27;12.43;;;;;;;;;;5007789;28;20220;-76
2022/01/14 06:09:10;;;;;;;22.85;13.35;;;;;;;;;;5012647;28;20200;-78
2022/01/14 06:11:37;;;;;;;21.70;13.25;;;;;;;;;;5011665;28;20572;-76
2022/01/14 06:14:04;;;;;;;24.98;14.02;;;;;;;;;;5008239;28;20200;-76
2022/01/14 06:16:33;;;;;;;21.42;13.95;;;;;;;;;;5007077;28;20234;-76
2022/01/14 06:19:00;;;;;;;23.10;13.50;;;;;;;;;;4998878;28;20212;-77
2022/01/14 06:21:27;;;;;;;25.48;14.25;;;;;;;;;;4990757;28;20200;-79
2022/01/14 06:23:54;;;;;;;20.23;12.55;;;;;;;;;;4989130;28;20203;-79
2022/01/14 06:26:21;;;;;;;23.48;13.48;;;;;;;;;;5012085;28;20590;-78
2022/01/14 06:28:48;;;;;;;22.75;12.55;;;;;;;;;;5009544;28;20207;-79
2022/01/14 06:31:15;;;;;;;22.60;13.25;;;;;;;;;;5007676;28;20196;-77
2022/01/14 06:33:44;;;;;;;19.30;12.85;;;;;;;;;;4995984;28;20594;-78
2022/01/14 06:36:11;;;;;;;23.27;13.02;;;;;;;;;;4990736;28;20224;-79
2022/01/14 06:38:38;;;;;;;18.70;12.07;;;;;;;;;;4990543;28;20204;-78
2022/01/14 06:41:06;;;;;;;19.13;12.00;;;;;;;;;;4990367;28;20571;-78
2022/01/14 06:43:33;;;;;;;20.52;12.02;;;;;;;;;;4994011;28;20207;-78
2022/01/14 06:46:00;;;;;;;19.40;12.70;;;;;;;;;;5010155;28;20195;-77
2022/01/14 06:48:27;;;;;;;20.58;12.80;;;;;;;;;;4986350;28;20602;-79
2022/01/14 06:50:56;;;;;;;20.77;13.65;;;;;;;;;;5009178;28;20196;-75
2022/01/14 06:53:24;;;;;;;19.95;12.48;;;;;;;;;;5009684;28;20203;-78
2022/01/14 06:55:51;;;;;;;19.10;12.38;;;;;;;;;;5000302;28;20223;-78
2022/01/14 06:58:18;;;;;;;22.63;13.05;;;;;;;;;;4994711;28;20235;-76
2022/01/14 07:00:45;;;;;;;23.00;12.48;;;;;;;;;;5010360;28;20200;-78
2022/01/14 07:03:12;;;;;;;22.42;13.13;;;;;;;;;;5009103;28;20204;-77
2022/01/14 07:05:39;;;;;;;20.15;13.73;;;;;;;;;;5006678;28;20196;-77
2022/01/14 07:08:08;;;;;;;21.98;13.02;;;;;;;;;;5007996;28;20216;-78
2022/01/14 07:10:37;;;;;;;20.85;12.55;;;;;;;;;;4994938;28;20501;-78
2022/01/14 07:13:04;;;;;;;16.73;11.77;;;;;;;;;;5007998;28;20287;-79
2022/01/14 07:15:32;;;;;;;20.33;13.80;;;;;;;;;;5010264;28;20578;-78
2022/01/14 07:17:59;;;;;;;22.45;11.52;;;;;;;;;;5008190;28;20701;-79
2022/01/14 07:20:26;;;;;;;24.10;13.15;;;;;;;;;;5006968;28;20552;-78
2022/01/14 07:22:53;;;;;;;23.23;12.50;;;;;;;;;;5005555;28;20561;-76
2022/01/14 07:25:22;;;;;;;21.70;13.30;;;;;;;;;;5009671;28;20200;-76
2022/01/14 07:27:50;;;;;;;23.50;13.60;;;;;;;;;;5009784;28;20223;-78
2022/01/14 07:30:17;;;;;;;25.92;14.10;;;;;;;;;;5009061;28;20203;-78
2022/01/14 07:32:45;;;;;;;23.50;13.10;;;;;;;;;;5009990;28;20491;-78
2022/01/14 07:35:13;;;;;;;30.40;13.60;;;;;;;;;;4986185;28;20216;-79
2022/01/14 07:37:40;;;;;;;28.02;14.13;;;;;;;;;;4993516;28;20220;-79
2022/01/14 07:40:08;;;;;;;26.98;14.57;;;;;;;;;;5004141;28;20204;-77
2022/01/14 07:42:37;;;;;;;28.05;14.43;;;;;;;;;;5009594;28;20222;-78
2022/01/14 07:45:04;;;;;;;24.88;14.80;;;;;;;;;;5010681;28;20224;-78
2022/01/14 07:47:32;;;;;;;29.77;15.90;;;;;;;;;;5008569;28;20221;-79
2022/01/14 07:49:59;;;;;;;32.08;17.23;;;;;;;;;;5011421;28;20196;-76
2022/01/14 07:52:26;;;;;;;42.25;16.88;;;;;;;;;;5012380;28;20202;-76
2022/01/14 07:54:53;;;;;;;30.05;15.45;;;;;;;;;;5012935;28;20214;-76
2022/01/14 07:57:21;;;;;;;37.15;16.15;;;;;;;;;;5008372;28;20238;-77
2022/01/14 07:59:49;;;;;;;29.77;16.05;;;;;;;;;;5013853;28;20203;-77
2022/01/14 08:02:18;;;;;;;37.95;16.45;;;;;;;;;;5015217;28;20214;-75
2022/01/14 08:04:47;;;;;;;33.92;15.55;;;;;;;;;;5006964;28;20295;-75
2022/01/14 08:07:17;;;;;;;28.75;14.77;;;;;;;;;;5008919;28;20216;-75
2022/01/14 08:09:44;;;;;;;30.20;15.05;;;;;;;;;;5012320;28;20675;-75
2022/01/14 08:12:13;;;;;;;30.02;15.30;;;;;;;;;;5011787;28;20295;-75
2022/01/14 08:14:42;;;;;;;30.95;15.32;;;;;;;;;;5011532;28;20258;-77
2022/01/14 08:17:12;;;;;;;28.83;15.00;;;;;;;;;;5000922;28;20209;-77
2022/01/14 08:19:39;;;;;;;23.50;13.50;;;;;;;;;;4998337;28;20204;-75
2022/01/14 08:22:07;;;;;;;26.33;13.80;;;;;;;;;;5001225;28;20219;-76
2022/01/14 08:24:35;;;;;;;24.23;13.60;;;;;;;;;;4990501;28;20196;-78
2022/01/14 08:27:03;;;;;;;25.13;13.43;;;;;;;;;;5012183;28;20592;-77
2022/01/14 08:29:30;;;;;;;21.27;13.27;;;;;;;;;;5012351;28;20565;-78
2022/01/14 08:31:58;;;;;;;23.35;13.52;;;;;;;;;;5012427;28;20195;-76
2022/01/14 08:34:27;;;;;;;25.70;13.18;;;;;;;;;;4993848;28;20203;-77
2022/01/14 08:36:54;;;;;;;24.27;13.65;;;;;;;;;;5002593;28;20224;-77
2022/01/14 08:39:22;;;;;;;22.50;14.50;;;;;;;;;;5010003;28;20211;-76
2022/01/14 08:41:49;;;;;;;24.63;14.27;;;;;;;;;;5009763;28;20207;-77
2022/01/14 08:44:17;;;;;;;26.50;13.60;;;;;;;;;;5010673;28;20204;-77
2022/01/14 08:46:44;;;;;;;23.92;12.73;;;;;;;;;;4988953;28;20231;-77
2022/01/14 08:49:12;;;;;;;26.88;14.80;;;;;;;;;;4992780;28;20731;-78
2022/01/14 08:51:43;;;;;;;23.60;14.13;;;;;;;;;;4991893;28;20205;-78
2022/01/14 08:54:10;;;;;;;23.15;13.23;;;;;;;;;;5007935;28;20208;-79
2022/01/14 08:56:37;;;;;;;22.23;12.82;;;;;;;;;;5009061;28;20678;-76
2022/01/14 08:59:05;;;;;;;24.38;13.88;;;;;;;;;;4999741;28;20577;-79
2022/01/14 09:01:32;;;;;;;27.05;14.88;;;;;;;;;;4992070;28;20211;-77
2022/01/14 09:04:01;;;;;;;29.38;15.40;;;;;;;;;;4991801;28;20205;-77
2022/01/14 09:06:28;;;;;;;27.00;15.73;;;;;;;;;;4991887;28;20209;-78
2022/01/14 09:08:56;;;;;;;23.20;14.25;;;;;;;;;;4992982;28;20231;-77
2022/01/14 09:11:24;;;;;;;25.73;14.35;;;;;;;;;;5001768;28;20200;-77
2022/01/14 09:13:51;;;;;;;20.05;13.00;;;;;;;;;;5006963;28;20634;-76
2022/01/14 09:16:20;;;;;;;22.52;13.82;;;;;;;;;;4994304;28;20243;-76
2022/01/14 09:18:47;;;;;;;29.95;15.13;;;;;;;;;;4991520;28;20522;-77
2022/01/14 09:21:14;;;;;;;28.58;14.85;;;;;;;;;;4991468;28;20539;-77
2022/01/14 09:23:43;;;;;;;24.15;14.70;;;;;;;;;;4990806;28;20208;-77
2022/01/14 09:26:11;;;;;;;28.55;16.27;;;;;;;;;;5000776;28;20204;-75
2022/01/14 09:28:39;;;;;;;27.38;15.20;;;;;;;;;;5009295;28;20568;-76
2022/01/14 09:31:06;;;;;;;32.95;16.15;;;;;;;;;;5009328;28;21575;-76
2022/01/14 09:33:34;;;;;;;24.38;15.30;;;;;;;;;;5006289;28;20192;-77
2022/01/14 09:36:01;;;;;;;21.35;15.05;;;;;;;;;;5011093;28;20247;-77
2022/01/14 09:38:28;;;;;;;28.92;16.20;;;;;;;;;;5011120;28;20560;-78
2022/01/14 09:40:56;;;;;;;25.95;16.25;;;;;;;;;;5011676;28;20192;-77
2022/01/14 09:43:25;;;;;;;27.10;15.38;;;;;;;;;;5012179;28;20215;-77
2022/01/14 09:45:52;;;;;;;29.27;16.50;;;;;;;;;;5013398;28;20200;-76
2022/01/14 09:48:20;;;;;;;28.77;15.70;;;;;;;;;;5013312;28;20223;-78
2022/01/14 09:50:47;;;;;;;26.35;13.88;;;;;;;;;;5008754;28;20204;-78
2022/01/14 09:53:15;;;;;;;28.83;15.57;;;;;;;;;;5008841;28;20203;-77
2022/01/14 09:55:42;;;;;;;23.23;14.40;;;;;;;;;;5009799;28;20227;-79
2022/01/14 09:58:10;;;;;;;23.88;14.52;;;;;;;;;;5009869;28;20238;-77
2022/01/14 10:00:39;;;;;;;27.60;15.60;;;;;;;;;;4974020;28;20231;-78
2022/01/14 10:03:21;;;;;;;27.23;15.73;;;;;;;;;;4982923;28;20189;-76
2022/01/14 10:05:51;;;;;;;24.58;14.73;;;;;;;;;;4985183;28;20212;-76
2022/01/14 10:08:22;;;;;;;25.10;14.95;;;;;;;;;;4991959;28;20227;-76
2022/01/14 10:10:50;;;;;;;29.17;15.00;;;;;;;;;;4975631;28;20565;-77
2022/01/14 10:13:19;;;;;;;23.13;14.20;;;;;;;;;;4981919;28;20203;-77
2022/01/14 10:15:49;;;;;;;25.55;15.57;;;;;;;;;;5007772;28;20247;-79
2022/01/14 10:18:17;;;;;;;22.98;13.73;;;;;;;;;;5008445;28;20228;-76
2022/01/14 10:20:44;;;;;;;23.35;13.95;;;;;;;;;;4992787;28;20193;-75
2022/01/14 10:23:13;;;;;;;18.15;12.80;;;;;;;;;;4991109;28;20205;-78
2022/01/14 10:25:41;;;;;;;20.33;13.68;;;;;;;;;;5000533;28;20192;-77
2022/01/14 10:28:17;;;;;;;23.92;13.30;;;;;;;;;;4984199;28;20221;-78
2022/01/14 10:30:45;;;;;;;23.23;13.45;;;;;;;;;;4987108;28;20200;-76
2022/01/14 10:33:14;;;;;;;17.25;12.27;;;;;;;;;;5008050;28;20211;-78
2022/01/14 10:35:42;;;;;;;23.52;12.55;;;;;;;;;;5009233;28;20212;-79
2022/01/14 10:38:11;;;;;;;19.02;12.05;;;;;;;;;;5008551;28;20629;-75
2022/01/14 10:40:43;;;;;;;20.55;13.13;;;;;;;;;;4973504;28;20211;-78
2022/01/14 10:43:11;;;;;;;17.15;12.50;;;;;;;;;;5007697;28;20265;-76
2022/01/14 10:45:38;;;;;;;17.52;11.90;;;;;;;;;;5010635;28;20226;-78
2022/01/14 10:48:07;;;;;;;20.13;12.63;;;;;;;;;;5005567;28;20236;-78
2022/01/14 10:50:37;;;;;;;22.33;13.35;;;;;;;;;;4990107;28;20194;-77
2022/01/14 10:53:08;;;;;;;26.05;13.57;;;;;;;;;;4991720;28;20553;-76
2022/01/14 10:55:37;;;;;;;19.80;12.57;;;;;;;;;;5008614;28;20238;-78
2022/01/14 10:58:05;;;;;;;23.63;13.65;;;;;;;;;;4986924;28;20228;-76
2022/01/14 11:00:41;;;;;;;32.08;16.20;;;;;;;;;;4975515;28;20205;-77
2022/01/14 11:03:08;;;;;;;25.23;16.10;;;;;;;;;;5009965;28;20203;-78
2022/01/14 11:05:36;;;;;;;33.63;19.85;;;;;;;;;;5006985;28;20196;-79
2022/01/14 11:08:04;;;;;;;33.08;18.67;;;;;;;;;;5006266;28;20230;-79
2022/01/14 11:10:33;;;;;;;31.80;17.70;;;;;;;;;;5009855;28;20206;-78
2022/01/14 11:13:01;;;;;;;34.50;18.50;;;;;;;;;;4992655;28;20239;-78
2022/01/14 11:15:29;;;;;;;35.28;19.85;;;;;;;;;;4993747;28;20197;-80
2022/01/14 11:17:59;;;;;;;25.23;18.38;;;;;;;;;;5000160;28;20230;-79
2022/01/14 11:20:31;;;;;;;27.15;17.95;;;;;;;;;;5015522;28;20203;-77
2022/01/14 11:25:43;;;;;;;30.92;20.13;;;;;;;;;;4963134;28;20203;-77
2022/01/14 11:28:11;;;;;;;32.70;19.33;;;;;;;;;;4976442;28;20216;-78
2022/01/14 11:30:40;;;;;;;38.22;20.30;;;;;;;;;;5007558;28;20200;-77
2022/01/14 11:33:08;;;;;;;30.02;18.35;;;;;;;;;;4993469;28;20211;-77
2022/01/14 11:35:37;;;;;;;31.70;19.90;;;;;;;;;;5009949;28;20188;-77
2022/01/14 11:38:25;;;;;;;40.40;22.92;;;;;;;;;;4993088;28;20671;-77
2022/01/14 11:40:52;;;;;;;28.65;19.48;;;;;;;;;;4998828;28;20676;-77
2022/01/14 11:43:34;;;;;;;28.40;19.17;;;;;;;;;;5005673;28;20564;-78
2022/01/14 11:46:01;;;;;;;30.77;19.67;;;;;;;;;;4992716;28;20188;-81
2022/01/14 11:48:33;;;;;;;26.85;19.23;;;;;;;;;;4998262;28;20542;-76
2022/01/14 11:51:00;;;;;;;29.23;18.35;;;;;;;;;;4997387;28;20215;-76
2022/01/14 11:53:36;;;;;;;32.17;19.17;;;;;;;;;;5012339;28;20569;-78
2022/01/14 11:56:03;;;;;;;28.73;18.02;;;;;;;;;;4998707;28;20281;-79
2022/01/14 11:58:30;;;;;;;28.85;16.65;;;;;;;;;;5009453;28;20679;-78
2022/01/14 12:00:58;;;;;;;35.25;20.15;;;;;;;;;;5010343;28;20661;-78
2022/01/14 12:03:28;;;;;;;34.97;20.45;;;;;;;;;;5012592;28;20206;-78
2022/01/14 12:05:56;;;;;;;30.95;21.25;;;;;;;;;;5000059;28;20197;-82
2022/01/14 12:08:24;;;;;;;36.45;19.75;;;;;;;;;;5006695;28;20227;-78
2022/01/14 12:10:54;;;;;;;35.38;21.00;;;;;;;;;;5006539;28;20645;-80
2022/01/14 12:13:25;;;;;;;41.80;21.60;;;;;;;;;;4997026;28;20238;-80
2022/01/14 12:15:57;;;;;;;37.33;20.33;;;;;;;;;;4996196;28;20467;-80
2022/01/14 12:18:39;;;;;;;43.30;22.13;;;;;;;;;;5011960;28;20192;-77
2022/01/14 12:21:06;;;;;;;41.65;20.15;;;;;;;;;;4994573;28;20204;-77
2022/01/14 12:23:34;;;;;;;41.63;21.13;;;;;;;;;;5009646;28;20200;-77
2022/01/14 12:26:13;;;;;;;47.33;21.83;;;;;;;;;;5000156;28;20547;-77
2022/01/14 12:28:40;;;;;;;40.67;20.70;;;;;;;;;;4993164;28;20291;-78
2022/01/14 12:31:08;;;;;;;49.35;22.27;;;;;;;;;;5011167;28;20192;-78
2022/01/14 12:33:45;;;;;;;41.83;22.13;;;;;;;;;;5011084;28;20204;-78
2022/01/14 12:36:12;;;;;;;39.58;20.92;;;;;;;;;;5007262;28;20286;-78
2022/01/14 12:38:40;;;;;;;41.45;19.90;;;;;;;;;;4989517;28;20188;-77
2022/01/14 12:41:15;;;;;;;35.42;19.70;;;;;;;;;;5024818;28;20207;-78
2022/01/14 12:43:50;;;;;;;41.67;20.83;;;;;;;;;;5010606;28;20192;-76
2022/01/14 12:46:34;;;;;;;41.50;22.00;;;;;;;;;;5009543;28;20752;-78
2022/01/14 12:49:03;;;;;;;48.78;23.20;;;;;;;;;;4996820;28;20295;-78
2022/01/14 12:51:32;;;;;;;49.00;23.60;;;;;;;;;;5011906;28;20206;-79
2022/01/14 12:54:01;;;;;;;46.03;21.45;;;;;;;;;;5005475;28;20658;-80
2022/01/14 12:56:30;;;;;;;47.88;22.27;;;;;;;;;;5010098;28;20223;-78
2022/01/14 12:59:00;;;;;;;45.78;23.13;;;;;;;;;;4997475;28;20279;-78
2022/01/14 13:01:29;;;;;;;42.70;21.40;;;;;;;;;;4968037;28;20332;-76
2022/01/14 13:03:57;;;;;;;50.38;23.10;;;;;;;;;;4977711;28;20189;-80
2022/01/14 13:06:24;;;;;;;49.97;23.02;;;;;;;;;;5007652;28;20243;-78
2022/01/14 13:08:56;;;;;;;53.13;23.48;;;;;;;;;;5004580;28;20196;-76
2022/01/14 13:11:23;;;;;;;48.97;23.98;;;;;;;;;;5007490;28;20195;-76
2022/01/14 13:13:59;;;;;;;48.70;23.73;;;;;;;;;;5003631;28;20729;-76
2022/01/14 13:16:27;;;;;;;56.35;24.02;;;;;;;;;;4995580;28;20749;-77
2022/01/14 13:18:55;;;;;;;49.67;26.08;;;;;;;;;;4996622;28;20250;-77
2022/01/14 13:21:22;;;;;;;58.97;26.75;;;;;;;;;;5003044;28;20207;-78
2022/01/14 13:23:50;;;;;;;54.78;23.35;;;;;;;;;;5009974;28;20204;-80
2022/01/14 13:26:17;;;;;;;54.53;26.33;;;;;;;;;;5005340;28;20254;-76
2022/01/14 13:28:48;;;;;;;58.05;25.13;;;;;;;;;;5008595;28;20227;-78
2022/01/14 13:31:18;;;;;;;55.45;26.30;;;;;;;;;;4990487;28;20205;-76
2022/01/14 13:33:45;;;;;;;52.95;26.05;;;;;;;;;;5006385;28;20199;-78
2022/01/14 13:36:12;;;;;;;53.95;23.58;;;;;;;;;;5010864;28;20211;-80
2022/01/14 13:38:39;;;;;;;56.42;27.15;;;;;;;;;;5008778;28;20228;-75
2022/01/14 13:41:08;;;;;;;60.83;26.23;;;;;;;;;;5007038;28;20203;-76
2022/01/14 13:43:37;;;;;;;53.85;23.48;;;;;;;;;;5001355;28;20326;-79
2022/01/14 13:46:10;;;;;;;58.60;26.90;;;;;;;;;;4993873;28;20883;-77
2022/01/14 13:48:43;;;;;;;60.55;27.75;;;;;;;;;;5011044;28;20239;-80
2022/01/14 13:51:12;;;;;;;52.30;25.45;;;;;;;;;;5010917;28;20250;-76
2022/01/14 13:53:42;;;;;;;51.33;25.73;;;;;;;;;;5005159;28;20205;-77
2022/01/14 13:56:10;;;;;;;51.92;25.50;;;;;;;;;;4976203;28;20201;-78
2022/01/14 13:58:39;;;;;;;60.63;26.63;;;;;;;;;;4993409;28;20663;-75
2022/01/14 14:01:06;;;;;;;60.25;27.33;;;;;;;;;;4994790;28;20573;-75
2022/01/14 14:03:39;;;;;;;55.47;24.67;;;;;;;;;;5008593;28;20551;-76
2022/01/14 14:06:11;;;;;;;63.85;26.17;;;;;;;;;;5007681;28;20298;-77
2022/01/14 14:08:46;;;;;;;61.55;28.08;;;;;;;;;;5010827;28;20200;-77
2022/01/14 14:16:40;;;;;;;60.15;27.80;;;;;;;;;;4990446;28;20381;-81
2022/01/14 14:19:07;;;;;;;62.28;29.65;;;;;;;;;;4992775;28;20635;-77
2022/01/14 14:21:36;;;;;;;53.22;26.17;;;;;;;;;;4992737;28;20212;-80
2022/01/14 14:24:05;;;;;;;56.45;28.02;;;;;;;;;;4996345;28;20189;-78
2022/01/14 14:26:33;;;;;;;59.65;29.35;;;;;;;;;;5006628;28;20318;-81
2022/01/14 14:29:02;;;;;;;54.47;26.98;;;;;;;;;;5005405;28;20202;-78
2022/01/14 14:31:31;;;;;;;49.03;24.83;;;;;;;;;;4990359;28;20652;-78
2022/01/14 14:33:58;;;;;;;50.20;25.48;;;;;;;;;;4989302;28;20204;-78
2022/01/14 14:36:28;;;;;;;61.22;28.08;;;;;;;;;;4990628;28;20224;-78
2022/01/14 14:38:56;;;;;;;51.20;24.75;;;;;;;;;;4993463;28;20728;-80
2022/01/14 14:41:23;;;;;;;55.55;24.20;;;;;;;;;;5007872;28;20211;-78
2022/01/14 14:43:51;;;;;;;55.17;24.48;;;;;;;;;;5005977;28;20619;-80
2022/01/14 14:46:18;;;;;;;51.63;25.90;;;;;;;;;;5010179;28;20207;-80
2022/01/14 14:48:45;;;;;;;54.08;27.20;;;;;;;;;;5010694;28;20218;-79
2022/01/14 14:51:12;;;;;;;66.80;25.70;;;;;;;;;;5011239;28;20294;-82